Time;durP1;ratioP1;P1;durP2;ratioP2;P2;SDS_P1;SDS_P2;PMS_P1;PMS_P2;Temp;Humidity;BMP_temperature;BMP_pressure;BME280_temperature;BME280_humidity;BME280_pressure;Samples;Min_cycle;Max_cycle;Signal;HPM_P1;HPM_P2
2022/01/22 00:02:05;;;;;;;6.95;5.32;;;8.10;99.90;;;;;;5109404;28;20218;-75
2022/01/22 00:04:31;;;;;;;4.78;3.50;;;8.10;99.90;;;;;;5109056;28;20197;-73
2022/01/22 00:07:01;;;;;;;9.45;4.57;;;8.10;99.90;;;;;;5109228;28;20193;-74
2022/01/22 00:09:36;;;;;;;8.40;3.67;;;8.10;99.90;;;;;;5109466;28;20279;-75
2022/01/22 00:12:06;;;;;;;8.93;4.25;;;8.10;99.90;;;;;;5108743;28;20202;-75
2022/01/22 00:14:32;;;;;;;4.15;3.33;;;8.10;99.90;;;;;;5107996;28;20206;-74
2022/01/22 00:17:00;;;;;;;9.37;4.00;;;8.20;99.90;;;;;;5109244;28;20262;-74
2022/01/22 00:19:28;;;;;;;7.82;3.97;;;8.20;99.90;;;;;;5108730;28;20486;-75
2022/01/22 00:21:56;;;;;;;6.70;3.47;;;8.30;99.90;;;;;;5109039;28;20217;-73
2022/01/22 00:24:23;;;;;;;13.02;3.38;;;8.30;99.90;;;;;;5108749;28;20187;-74
2022/01/22 00:26:51;;;;;;;8.35;3.58;;;8.30;99.90;;;;;;5108643;28;20281;-75
2022/01/22 00:29:18;;;;;;;10.95;4.07;;;8.20;99.90;;;;;;5105401;28;20205;-76
2022/01/22 00:31:45;;;;;;;9.23;3.58;;;8.20;99.90;;;;;;5107869;28;20306;-74
2022/01/22 00:34:12;;;;;;;11.70;3.10;;;8.20;99.90;;;;;;5107653;28;20285;-74
2022/01/22 00:36:40;;;;;;;9.32;3.70;;;8.20;99.90;;;;;;5108581;28;20203;-74
2022/01/22 00:39:08;;;;;;;9.90;4.03;;;8.20;99.90;;;;;;5108544;28;20213;-74
2022/01/22 00:41:35;;;;;;;5.15;2.63;;;8.20;99.90;;;;;;5107790;28;20229;-74
2022/01/22 00:44:04;;;;;;;8.25;3.58;;;8.20;99.90;;;;;;5108630;28;20190;-74
2022/01/22 00:46:33;;;;;;;6.88;3.10;;;8.20;99.90;;;;;;5108221;28;20241;-74
2022/01/22 00:49:00;;;;;;;9.18;4.00;;;8.20;99.90;;;;;;5108842;28;20201;-74
2022/01/22 00:51:27;;;;;;;10.15;4.60;;;8.10;99.90;;;;;;5108384;28;20214;-76
2022/01/22 00:53:54;;;;;;;12.05;4.00;;;8.20;99.90;;;;;;5107978;28;20284;-76
2022/01/22 00:56:21;;;;;;;12.90;6.18;;;8.00;99.90;;;;;;5108562;28;20182;-75
2022/01/22 00:58:49;;;;;;;12.88;3.30;;;8.20;99.90;;;;;;5108225;28;20197;-75
2022/01/22 01:01:17;;;;;;;9.52;3.50;;;8.20;99.90;;;;;;5107542;28;20217;-75
2022/01/22 01:03:44;;;;;;;6.00;2.58;;;8.20;99.90;;;;;;5108272;28;20189;-76
2022/01/22 01:06:11;;;;;;;15.27;4.18;;;8.20;99.90;;;;;;5108401;28;20175;-76
2022/01/22 01:08:38;;;;;;;12.77;4.45;;;8.30;99.90;;;;;;5108551;28;20174;-75
2022/01/22 01:11:06;;;;;;;8.18;4.45;;;8.30;99.90;;;;;;5107773;28;20256;-75
2022/01/22 01:13:43;;;;;;;12.15;4.85;;;8.30;99.90;;;;;;5108117;28;20210;-75
2022/01/22 01:16:32;;;;;;;10.18;4.60;;;8.20;99.90;;;;;;5108495;28;20223;-77
2022/01/22 01:32:54;;;;;;;9.73;4.78;;;8.30;99.90;;;;;;5107842;28;20379;-74
2022/01/22 01:35:23;;;;;;;9.35;3.28;;;8.30;99.90;;;;;;5107779;28;20272;-75
2022/01/22 01:37:52;;;;;;;9.02;4.45;;;8.30;99.90;;;;;;5107473;28;20186;-75
2022/01/22 01:40:21;;;;;;;12.88;4.28;;;8.30;99.90;;;;;;5106730;28;20193;-74
2022/01/22 01:42:53;;;;;;;10.05;4.25;;;8.30;99.90;;;;;;5106410;28;20232;-76
2022/01/22 01:45:20;;;;;;;11.20;3.80;;;8.30;99.90;;;;;;5107068;28;20190;-75
2022/01/22 01:47:49;;;;;;;12.27;4.72;;;8.30;99.90;;;;;;5107622;28;20183;-75
2022/01/22 01:50:18;;;;;;;21.25;5.63;;;8.30;99.90;;;;;;5106669;28;20258;-75
2022/01/22 01:52:50;;;;;;;13.43;5.25;;;8.30;99.90;;;;;;5107076;28;20213;-75
2022/01/22 01:55:21;;;;;;;10.63;4.53;;;8.30;99.90;;;;;;5088521;28;20315;-75
2022/01/22 01:57:48;;;;;;;15.38;5.38;;;8.30;99.90;;;;;;5105065;28;20260;-74
2022/01/22 02:00:18;;;;;;;22.35;6.13;;;8.30;99.90;;;;;;5106377;28;20178;-74
2022/01/22 02:02:47;;;;;;;13.88;6.47;;;8.30;99.90;;;;;;5105998;28;20443;-75
2022/01/22 02:05:14;;;;;;;20.98;5.15;;;8.30;99.90;;;;;;5105535;28;20249;-74
2022/01/22 02:07:43;;;;;;;11.63;3.97;;;8.30;99.90;;;;;;5108064;28;20186;-75
2022/01/22 02:10:17;;;;;;;8.85;4.03;;;8.30;99.90;;;;;;5114377;27;20205;-74
2022/01/22 02:13:39;;;;;;;9.20;3.65;;;8.30;99.90;;;;;;5089116;28;20353;-74
2022/01/22 02:24:04;;;;;;;7.45;4.10;;;8.40;99.90;;;;;;5102675;28;20196;-75
2022/01/22 02:26:31;;;;;;;13.35;5.30;;;8.40;99.90;;;;;;5106765;28;20194;-74
2022/01/22 02:28:58;;;;;;;9.75;4.47;;;8.40;99.90;;;;;;5106392;28;20208;-75
2022/01/22 02:31:32;;;;;;;14.90;5.75;;;8.40;99.90;;;;;;5105892;28;20221;-74
2022/01/22 02:34:08;;;;;;;17.02;6.07;;;8.40;99.90;;;;;;5106482;28;20313;-75
2022/01/22 02:36:41;;;;;;;11.02;5.28;;;8.40;99.90;;;;;;5106625;28;20204;-75
2022/01/22 02:39:13;;;;;;;11.68;4.30;;;8.40;99.90;;;;;;5088552;28;20275;-75
2022/01/22 02:41:43;;;;;;;16.20;5.20;;;8.40;99.90;;;;;;5105539;28;20217;-76
2022/01/22 02:44:11;;;;;;;13.77;5.00;;;8.30;99.90;;;;;;5106313;28;20196;-75
2022/01/22 02:46:42;;;;;;;14.95;5.60;;;8.20;99.90;;;;;;5106555;28;20225;-75
2022/01/22 02:49:09;;;;;;;17.95;7.25;;;8.20;99.90;;;;;;5106320;28;20189;-75
2022/01/22 02:51:39;;;;;;;17.23;4.97;;;8.10;99.90;;;;;;5105774;28;20338;-74
2022/01/22 02:54:05;;;;;;;19.42;5.85;;;8.10;99.90;;;;;;5106141;28;20228;-75
2022/01/22 02:56:32;;;;;;;17.88;5.00;;;8.10;99.90;;;;;;5105622;28;20277;-75
2022/01/22 02:59:00;;;;;;;16.13;5.55;;;8.20;99.90;;;;;;5106116;28;20313;-74
2022/01/22 03:01:28;;;;;;;18.60;4.60;;;8.20;99.90;;;;;;5105819;28;20198;-75
2022/01/22 03:03:55;;;;;;;10.82;4.45;;;8.20;99.90;;;;;;5105978;28;20220;-75
2022/01/22 03:06:30;;;;;;;11.27;3.90;;;8.30;99.90;;;;;;5105931;28;20185;-75
2022/01/22 03:09:00;;;;;;;11.45;5.35;;;8.30;99.90;;;;;;5108229;28;20201;-75
2022/01/22 03:11:30;;;;;;;6.35;3.60;;;8.40;99.90;;;;;;5109995;28;20237;-75
2022/01/22 03:16:55;;;;;;;11.57;4.57;;;8.30;99.90;;;;;;5110435;28;20174;-74
2022/01/22 03:19:44;;;;;;;8.73;3.40;;;8.30;99.90;;;;;;5092108;28;20307;-75
2022/01/22 03:22:17;;;;;;;10.15;3.47;;;8.30;99.90;;;;;;5109825;28;20205;-75
2022/01/22 03:27:32;;;;;;;8.35;3.17;;;8.20;99.90;;;;;;5107678;28;20305;-75
2022/01/22 03:30:00;;;;;;;8.48;2.47;;;8.20;99.90;;;;;;5108917;28;20193;-74
2022/01/22 03:32:32;;;;;;;6.57;2.47;;;8.20;99.90;;;;;;5110529;28;20233;-74
2022/01/22 03:35:08;;;;;;;7.13;2.45;;;8.20;99.90;;;;;;5110070;28;20221;-75
2022/01/22 03:37:36;;;;;;;7.63;2.50;;;8.20;99.90;;;;;;5109872;28;20206;-75
2022/01/22 03:40:06;;;;;;;5.07;2.10;;;8.20;99.90;;;;;;5109385;28;20281;-74
2022/01/22 03:42:34;;;;;;;9.82;2.40;;;8.20;99.90;;;;;;5109507;28;20243;-75
2022/01/22 03:45:01;;;;;;;5.50;3.10;;;8.20;99.90;;;;;;5108504;28;20186;-75
2022/01/22 03:47:28;;;;;;;5.72;2.83;;;8.20;99.90;;;;;;5112096;27;20281;-75
2022/01/22 03:49:55;;;;;;;3.22;1.73;;;8.20;99.90;;;;;;5109401;28;20327;-76
2022/01/22 03:52:22;;;;;;;4.00;1.50;;;8.20;99.90;;;;;;5115336;27;20226;-75
2022/01/22 03:54:49;;;;;;;6.00;1.88;;;8.10;99.90;;;;;;5109345;28;20284;-75
2022/01/22 03:57:17;;;;;;;3.25;1.92;;;8.10;99.90;;;;;;5109347;28;20197;-75
2022/01/22 03:59:45;;;;;;;4.93;1.55;;;8.10;99.90;;;;;;5108822;28;20213;-75
2022/01/22 04:04:57;;;;;;;4.60;3.03;;;8.20;99.90;;;;;;5101248;28;20221;-74
2022/01/22 04:10:23;;;;;;;6.60;2.75;;;8.20;99.90;;;;;;5055283;28;20208;-73
2022/01/22 04:12:57;;;;;;;9.30;3.58;;;8.20;99.90;;;;;;5092089;28;20216;-74
2022/01/22 04:15:27;;;;;;;8.95;3.80;;;8.20;99.90;;;;;;5091435;28;20228;-74
2022/01/22 04:26:20;;;;;;;5.65;3.55;;;8.10;99.90;;;;;;5086501;28;20185;-74
2022/01/22 04:28:48;;;;;;;8.00;3.90;;;8.20;99.90;;;;;;5108908;28;20185;-74
2022/01/22 04:31:15;;;;;;;8.93;3.15;;;8.10;99.90;;;;;;5107503;28;20315;-74
2022/01/22 04:33:42;;;;;;;8.57;4.00;;;8.10;99.90;;;;;;5109054;28;20198;-74
2022/01/22 04:36:11;;;;;;;12.10;2.60;;;8.10;99.90;;;;;;5108767;28;20304;-75
2022/01/22 04:38:39;;;;;;;7.00;3.60;;;8.10;99.90;;;;;;5109195;28;20173;-75
2022/01/22 04:41:06;;;;;;;7.32;3.47;;;8.00;99.90;;;;;;5107978;28;20455;-74
2022/01/22 04:43:36;;;;;;;5.90;2.90;;;8.00;99.90;;;;;;5108893;28;20260;-74
2022/01/22 04:46:16;;;;;;;5.05;2.67;;;8.00;99.90;;;;;;5109159;28;20304;-75
2022/01/22 04:48:51;;;;;;;6.53;1.80;;;8.00;99.90;;;;;;5108692;28;20197;-74
2022/01/22 04:56:51;;;;;;;3.00;1.60;;;8.00;99.90;;;;;;5088217;28;20245;-75
2022/01/22 04:59:18;;;;;;;4.10;1.83;;;8.00;99.90;;;;;;5088379;28;20224;-75
2022/01/22 05:01:47;;;;;;;4.22;2.10;;;8.10;99.90;;;;;;5087756;28;20223;-75
2022/01/22 05:04:14;;;;;;;3.15;1.77;;;8.10;99.90;;;;;;5089048;28;20186;-74
2022/01/22 05:06:41;;;;;;;2.75;1.42;;;8.00;99.90;;;;;;5088507;28;20235;-74
2022/01/22 05:09:08;;;;;;;1.70;1.52;;;8.00;99.90;;;;;;5088649;28;20182;-74
2022/01/22 05:11:35;;;;;;;2.00;1.80;;;8.00;99.90;;;;;;5087414;28;20268;-74
2022/01/22 05:14:02;;;;;;;3.38;1.20;;;8.00;99.90;;;;;;5087950;28;20284;-74
2022/01/22 05:16:29;;;;;;;3.33;2.30;;;8.00;99.90;;;;;;5088545;28;20242;-74
2022/01/22 05:19:02;;;;;;;6.45;2.28;;;8.00;99.90;;;;;;5088307;28;20198;-75
2022/01/22 05:21:31;;;;;;;1.50;1.35;;;8.00;99.90;;;;;;5087786;28;20310;-74
2022/01/22 05:24:03;;;;;;;3.75;1.70;;;8.00;99.90;;;;;;5109605;28;20201;-74
2022/01/22 05:26:54;;;;;;;2.33;1.80;;;8.00;99.90;;;;;;5107078;28;20189;-74
2022/01/22 05:29:53;;;;;;;2.13;1.50;;;8.10;99.90;;;;;;5108191;28;20212;-73
2022/01/22 05:32:26;;;;;;;2.67;1.73;;;8.10;99.90;;;;;;5102603;28;20213;-74
2022/01/22 05:37:40;;;;;;;4.22;2.70;;;8.00;99.90;;;;;;5107811;28;20212;-74
2022/01/22 05:40:08;;;;;;;7.97;2.53;;;8.00;99.90;;;;;;5106896;28;20201;-73
2022/01/22 05:42:36;;;;;;;3.20;1.70;;;8.00;99.90;;;;;;5107420;28;20245;-73
2022/01/22 05:45:04;;;;;;;7.13;3.53;;;8.00;99.90;;;;;;5108230;28;20217;-72
2022/01/22 05:47:31;;;;;;;6.60;3.08;;;8.00;99.90;;;;;;5107429;28;20221;-74
2022/01/22 05:50:01;;;;;;;5.63;2.55;;;8.00;99.90;;;;;;5107691;28;20209;-73
2022/01/22 05:52:34;;;;;;;5.70;2.75;;;8.00;99.90;;;;;;5107691;28;20209;-73
2022/01/22 06:00:34;;;;;;;5.60;2.80;;;7.90;99.90;;;;;;5106757;28;20193;-75
2022/01/22 06:03:01;;;;;;;11.02;3.10;;;8.00;99.90;;;;;;5107693;28;20254;-75
2022/01/22 06:05:29;;;;;;;8.68;3.55;;;8.00;99.90;;;;;;5107246;28;20183;-74
2022/01/22 06:07:57;;;;;;;8.80;2.97;;;8.10;99.90;;;;;;5107013;28;20226;-75
2022/01/22 06:10:28;;;;;;;10.63;3.28;;;8.10;99.90;;;;;;5106153;28;20281;-74
2022/01/22 06:13:11;;;;;;;7.63;3.08;;;8.10;99.90;;;;;;5107371;28;20252;-75
2022/01/22 06:15:37;;;;;;;5.20;2.80;;;8.10;99.90;;;;;;5106622;28;20225;-74
2022/01/22 06:18:05;;;;;;;17.95;5.78;;;8.10;99.90;;;;;;5107037;28;20200;-75
2022/01/22 06:20:33;;;;;;;13.20;4.85;;;8.10;99.90;;;;;;5106209;28;20210;-74
2022/01/22 06:23:01;;;;;;;11.93;4.10;;;8.20;99.90;;;;;;5101649;28;20326;-75
2022/01/22 06:25:28;;;;;;;11.35;4.70;;;8.20;99.90;;;;;;5106669;28;20189;-75
2022/01/22 06:27:55;;;;;;;13.95;5.20;;;8.10;99.90;;;;;;5107059;28;20319;-75
2022/01/22 06:30:22;;;;;;;12.73;5.30;;;8.10;99.90;;;;;;5105915;28;20412;-75
2022/01/22 06:32:49;;;;;;;14.18;4.78;;;8.10;99.90;;;;;;5106443;28;20237;-75
2022/01/22 06:35:16;;;;;;;11.10;4.78;;;8.10;99.90;;;;;;5106699;28;20428;-74
2022/01/22 06:37:44;;;;;;;12.98;6.50;;;8.20;99.90;;;;;;5106735;28;20388;-74
2022/01/22 06:42:56;;;;;;;10.40;5.63;;;8.10;99.90;;;;;;5106305;28;20255;-74
2022/01/22 06:45:23;;;;;;;11.05;5.35;;;8.10;99.90;;;;;;5106324;28;20234;-74
2022/01/22 06:47:50;;;;;;;14.48;5.40;;;8.00;99.90;;;;;;5106623;28;20254;-74
2022/01/22 06:50:19;;;;;;;14.38;4.47;;;8.00;99.90;;;;;;5106383;28;20190;-74
2022/01/22 06:52:47;;;;;;;9.93;5.65;;;8.00;99.90;;;;;;5106793;28;20225;-74
2022/01/22 06:55:28;;;;;;;11.98;5.97;;;8.00;99.90;;;;;;5106474;28;20224;-74
2022/01/22 06:57:55;;;;;;;12.23;5.68;;;8.10;99.90;;;;;;5106225;28;20203;-74
2022/01/22 07:00:22;;;;;;;12.23;6.80;;;8.10;99.90;;;;;;5105851;28;20258;-74
2022/01/22 07:02:49;;;;;;;10.02;3.92;;;7.90;99.90;;;;;;5105552;28;20226;-74
2022/01/22 07:05:16;;;;;;;10.95;4.68;;;7.90;99.90;;;;;;5106015;28;20396;-74
2022/01/22 07:07:43;;;;;;;11.88;4.13;;;7.90;99.90;;;;;;5102393;27;20185;-75
2022/01/22 07:10:13;;;;;;;9.50;5.18;;;7.80;99.90;;;;;;5126307;27;20241;-74
2022/01/22 07:12:41;;;;;;;16.10;4.10;;;7.80;99.90;;;;;;5126649;27;20216;-74
2022/01/22 07:15:08;;;;;;;10.80;3.90;;;7.90;99.90;;;;;;5126976;27;20214;-75
2022/01/22 07:17:37;;;;;;;9.50;4.45;;;7.80;99.90;;;;;;5110400;27;20232;-74
2022/01/22 07:20:10;;;;;;;9.35;3.67;;;7.80;99.90;;;;;;5106353;28;20226;-75
2022/01/22 07:22:47;;;;;;;14.13;4.40;;;7.80;99.90;;;;;;5106107;28;20224;-74
2022/01/22 07:25:16;;;;;;;10.32;4.55;;;7.90;99.90;;;;;;5105760;28;20189;-74
2022/01/22 07:27:42;;;;;;;8.57;4.93;;;7.90;99.90;;;;;;5106140;28;20206;-74
2022/01/22 07:30:10;;;;;;;16.02;5.10;;;7.90;99.90;;;;;;5105911;28;20202;-74
2022/01/22 07:32:41;;;;;;;8.75;4.60;;;8.00;99.90;;;;;;5106079;28;20455;-73
2022/01/22 07:35:09;;;;;;;12.07;4.82;;;8.00;99.90;;;;;;5105983;28;20241;-72
2022/01/22 07:37:36;;;;;;;15.90;4.78;;;8.00;99.90;;;;;;5106618;28;20204;-73
2022/01/22 07:40:05;;;;;;;15.23;4.90;;;8.00;99.90;;;;;;5099778;28;20195;-73
2022/01/22 07:42:34;;;;;;;9.05;4.18;;;8.00;99.90;;;;;;5099358;28;20207;-74
2022/01/22 07:45:01;;;;;;;6.28;3.85;;;8.00;99.90;;;;;;5106207;28;20182;-74
2022/01/22 07:47:28;;;;;;;10.32;5.03;;;8.00;99.90;;;;;;5105944;28;20221;-75
2022/01/22 07:49:55;;;;;;;8.68;4.50;;;8.00;99.90;;;;;;5097672;28;20245;-73
2022/01/22 07:52:22;;;;;;;10.15;5.80;;;8.10;99.90;;;;;;5087912;28;20385;-75
2022/01/22 07:54:49;;;;;;;19.08;5.38;;;8.10;99.90;;;;;;5092747;28;20232;-78
2022/01/22 07:57:17;;;;;;;13.55;5.10;;;8.20;99.90;;;;;;5105132;28;20247;-78
2022/01/22 07:59:45;;;;;;;15.60;6.03;;;8.20;99.90;;;;;;5096849;28;20245;-79
2022/01/22 08:02:14;;;;;;;12.48;4.75;;;8.20;99.90;;;;;;5109646;28;20281;-75
2022/01/22 08:04:42;;;;;;;9.35;5.50;;;8.20;99.90;;;;;;5109948;28;20218;-77
2022/01/22 08:07:09;;;;;;;10.68;5.95;;;8.30;99.90;;;;;;5109424;28;20326;-76
2022/01/22 08:09:36;;;;;;;14.95;6.45;;;8.20;99.90;;;;;;5109120;28;20225;-77
2022/01/22 08:12:04;;;;;;;14.27;5.90;;;8.20;99.90;;;;;;5109169;28;20234;-77
2022/01/22 08:14:31;;;;;;;14.52;6.55;;;8.30;99.90;;;;;;5109644;28;20213;-78
2022/01/22 08:16:59;;;;;;;15.23;6.13;;;8.20;99.90;;;;;;5109787;28;20218;-77
2022/01/22 08:19:27;;;;;;;14.65;6.50;;;8.20;99.90;;;;;;5109347;28;20189;-75
2022/01/22 08:21:54;;;;;;;13.93;6.60;;;8.10;99.90;;;;;;5108960;28;20209;-76
2022/01/22 08:24:24;;;;;;;16.42;7.82;;;8.30;99.90;;;;;;5109155;28;20249;-75
2022/01/22 08:26:53;;;;;;;20.75;8.18;;;8.20;99.90;;;;;;5108548;28;20328;-76
2022/01/22 08:29:20;;;;;;;15.30;7.90;;;8.20;99.90;;;;;;5108801;28;20274;-77
2022/01/22 08:31:52;;;;;;;16.33;7.70;;;8.20;99.90;;;;;;5108208;28;20229;-74
2022/01/22 08:37:05;;;;;;;10.15;6.43;;;8.30;99.90;;;;;;5108738;28;20193;-77
2022/01/22 08:39:32;;;;;;;12.40;8.55;;;8.30;99.90;;;;;;5108157;28;20197;-76
2022/01/22 08:42:00;;;;;;;16.30;7.72;;;8.40;99.90;;;;;;5108330;28;20249;-76
2022/01/22 08:44:27;;;;;;;12.80;7.25;;;8.40;99.90;;;;;;5108667;28;20201;-77
2022/01/22 08:46:56;;;;;;;13.15;7.40;;;8.30;99.90;;;;;;5108541;28;20197;-74
2022/01/22 08:49:25;;;;;;;14.82;7.82;;;8.30;99.90;;;;;;5106435;28;20217;-72
2022/01/22 08:51:53;;;;;;;15.52;7.20;;;8.40;99.90;;;;;;5097548;28;20274;-73
2022/01/22 08:54:20;;;;;;;19.33;8.13;;;8.40;99.90;;;;;;5106899;28;20255;-73
2022/01/22 08:56:47;;;;;;;10.27;5.60;;;8.50;99.90;;;;;;5104463;28;20233;-74
2022/01/22 08:59:14;;;;;;;6.75;5.00;;;8.50;99.90;;;;;;5107396;28;20186;-73
2022/01/22 09:01:43;;;;;;;6.32;4.22;;;8.50;99.90;;;;;;5107659;28;20303;-74
2022/01/22 09:04:10;;;;;;;7.38;4.28;;;8.40;99.90;;;;;;5108223;28;20217;-74
2022/01/22 09:06:38;;;;;;;4.18;3.53;;;8.40;99.90;;;;;;5108231;28;20234;-75
2022/01/22 09:09:10;;;;;;;6.57;4.53;;;8.40;99.90;;;;;;5108491;28;20298;-75
2022/01/22 09:11:40;;;;;;;5.63;3.63;;;8.50;99.90;;;;;;5107637;28;20264;-75
2022/01/22 09:14:09;;;;;;;4.35;3.60;;;8.40;99.90;;;;;;5108372;28;20231;-75
2022/01/22 09:16:36;;;;;;;6.60;4.25;;;8.40;99.90;;;;;;5108445;28;20323;-75
2022/01/22 09:19:08;;;;;;;3.35;2.50;;;8.40;99.90;;;;;;5108442;28;20381;-76
2022/01/22 09:21:38;;;;;;;5.95;2.70;;;8.40;99.90;;;;;;5109575;28;20429;-76
2022/01/22 09:24:06;;;;;;;2.72;2.20;;;8.50;99.90;;;;;;5088226;28;20211;-77
2022/01/22 09:26:33;;;;;;;2.60;2.28;;;8.50;99.90;;;;;;5107938;28;20336;-77
2022/01/22 09:29:00;;;;;;;2.97;2.65;;;8.50;99.90;;;;;;5108205;28;20174;-76
2022/01/22 09:31:30;;;;;;;3.17;2.22;;;8.60;99.90;;;;;;5107166;28;20351;-73
2022/01/22 09:33:59;;;;;;;3.00;2.70;;;8.60;99.90;;;;;;5107608;28;20227;-72
2022/01/22 09:36:28;;;;;;;4.93;2.97;;;8.60;99.90;;;;;;5107751;28;20220;-73
2022/01/22 09:38:57;;;;;;;4.38;2.55;;;8.60;99.90;;;;;;5107464;28;20182;-75
2022/01/22 09:41:26;;;;;;;5.45;2.88;;;8.60;99.90;;;;;;5107012;28;20205;-73
2022/01/22 09:43:54;;;;;;;4.53;3.33;;;8.60;99.90;;;;;;5107284;28;20193;-74
2022/01/22 09:46:22;;;;;;;4.13;2.88;;;8.60;99.90;;;;;;5107251;28;20427;-74
2022/01/22 09:48:50;;;;;;;6.03;4.65;;;8.60;99.90;;;;;;5107997;28;20216;-74
2022/01/22 09:51:18;;;;;;;4.95;3.92;;;8.60;99.90;;;;;;5107346;28;20260;-74
2022/01/22 09:53:46;;;;;;;4.55;3.10;;;8.70;99.90;;;;;;5107470;28;20194;-73
2022/01/22 09:56:20;;;;;;;4.15;3.40;;;8.80;99.90;;;;;;5107888;28;20271;-71
2022/01/22 09:58:47;;;;;;;5.80;4.22;;;8.90;99.90;;;;;;5069398;28;20340;-75
2022/01/22 10:01:26;;;;;;;6.10;4.60;;;9.00;99.90;;;;;;5087383;28;20289;-73
2022/01/22 10:03:55;;;;;;;10.15;5.30;;;9.00;99.90;;;;;;5088104;28;20246;-73
2022/01/22 10:06:26;;;;;;;7.97;4.60;;;9.00;99.90;;;;;;5087754;28;20195;-73
2022/01/22 10:08:56;;;;;;;7.90;5.25;;;8.90;99.90;;;;;;5087204;28;20199;-74
2022/01/22 10:11:26;;;;;;;6.15;4.32;;;8.90;99.90;;;;;;5086027;28;20264;-73
2022/01/22 10:13:58;;;;;;;6.80;4.63;;;8.90;99.90;;;;;;5086874;28;20391;-71
2022/01/22 10:16:27;;;;;;;7.90;5.03;;;8.90;99.90;;;;;;5086469;28;20207;-72
2022/01/22 10:19:14;;;;;;;7.88;5.32;;;8.80;99.90;;;;;;5085694;28;20198;-71
2022/01/22 10:21:45;;;;;;;6.72;4.20;;;8.80;99.90;;;;;;5087653;28;20238;-74
2022/01/22 10:24:41;;;;;;;6.25;4.78;;;8.90;99.90;;;;;;5106555;28;20198;-74
2022/01/22 10:27:21;;;;;;;3.92;3.15;;;9.00;99.90;;;;;;5064354;28;20202;-72
2022/01/22 10:29:52;;;;;;;8.10;6.00;;;9.10;99.90;;;;;;5100772;28;20190;-73
2022/01/22 10:32:23;;;;;;;3.72;3.20;;;9.20;99.90;;;;;;5106001;28;20350;-73
2022/01/22 10:35:02;;;;;;;4.70;2.28;;;9.20;99.90;;;;;;5106130;28;20260;-74
2022/01/22 10:37:29;;;;;;;2.80;1.40;;;9.30;99.90;;;;;;5106540;28;20209;-74
2022/01/22 10:40:18;;;;;;;2.42;1.25;;;9.40;99.90;;;;;;5105785;28;20197;-73
2022/01/22 10:42:46;;;;;;;2.20;1.13;;;9.40;99.90;;;;;;5097743;28;20206;-75
2022/01/22 10:45:23;;;;;;;1.70;1.30;;;9.50;99.90;;;;;;5106485;28;20332;-74
2022/01/22 10:47:50;;;;;;;1.50;1.40;;;9.50;99.90;;;;;;5106617;28;20240;-73
2022/01/22 10:50:19;;;;;;;3.88;1.38;;;9.40;99.90;;;;;;5105710;28;20182;-73
2022/01/22 10:52:50;;;;;;;2.22;0.93;;;9.30;99.90;;;;;;5106320;28;20217;-73
2022/01/22 10:55:17;;;;;;;4.63;2.00;;;9.30;99.90;;;;;;5106128;28;20405;-74
2022/01/22 10:58:10;;;;;;;1.98;1.52;;;9.20;99.90;;;;;;5105916;28;20245;-73
2022/01/22 11:00:37;;;;;;;1.48;1.38;;;9.20;99.90;;;;;;5105385;28;20210;-73
2022/01/22 11:03:21;;;;;;;3.25;1.50;;;9.30;99.90;;;;;;5106547;28;20186;-75
2022/01/22 11:05:48;;;;;;;2.60;1.27;;;9.20;99.90;;;;;;5105839;28;20355;-72
2022/01/22 11:08:16;;;;;;;3.00;1.70;;;9.20;99.90;;;;;;5106039;28;20247;-72
2022/01/22 11:10:45;;;;;;;2.90;1.98;;;9.30;99.90;;;;;;5097008;28;20201;-74
2022/01/22 11:13:14;;;;;;;2.28;2.08;;;9.30;99.90;;;;;;5105990;28;20373;-73
2022/01/22 11:15:41;;;;;;;5.35;2.45;;;9.30;99.90;;;;;;5104641;28;20198;-73
2022/01/22 11:18:10;;;;;;;5.05;2.50;;;9.40;99.90;;;;;;5106010;28;20191;-72
2022/01/22 11:20:38;;;;;;;2.33;1.90;;;9.40;99.90;;;;;;5103132;28;20320;-71
2022/01/22 11:23:05;;;;;;;3.45;1.92;;;9.40;99.90;;;;;;5104393;28;20407;-73
2022/01/22 11:25:35;;;;;;;4.80;3.20;;;9.40;99.90;;;;;;5100648;28;20204;-74
2022/01/22 11:28:03;;;;;;;1.75;1.65;;;9.40;99.90;;;;;;5096491;28;20314;-74
2022/01/22 11:30:32;;;;;;;6.88;2.67;;;9.60;99.90;;;;;;5109384;28;20214;-74
2022/01/22 11:33:04;;;;;;;3.00;1.67;;;9.60;99.90;;;;;;5110042;28;20220;-72
2022/01/22 11:35:40;;;;;;;3.40;2.28;;;9.50;99.90;;;;;;5106756;28;20390;-77
2022/01/22 11:38:10;;;;;;;3.65;1.90;;;9.50;99.90;;;;;;5109939;28;20259;-75
2022/01/22 11:40:37;;;;;;;2.33;1.40;;;9.60;99.90;;;;;;5108897;28;20231;-76
2022/01/22 11:43:07;;;;;;;3.60;1.95;;;9.60;99.90;;;;;;5109446;28;20182;-75
2022/01/22 11:45:41;;;;;;;2.70;2.15;;;9.60;99.90;;;;;;5108993;28;20210;-75
2022/01/22 11:48:16;;;;;;;3.00;2.28;;;9.50;99.90;;;;;;5109101;28;20376;-74
2022/01/22 11:50:45;;;;;;;2.60;1.80;;;9.60;99.90;;;;;;5108464;28;20181;-73
2022/01/22 11:53:26;;;;;;;3.55;1.50;;;9.50;99.90;;;;;;5109471;28;20186;-73
2022/01/22 11:56:24;;;;;;;3.38;2.22;;;9.60;99.90;;;;;;5108686;28;20182;-73
2022/01/22 11:59:26;;;;;;;4.18;2.30;;;9.60;99.90;;;;;;5106465;28;20202;-74
2022/01/22 12:02:03;;;;;;;3.00;1.70;;;9.60;99.90;;;;;;5109450;28;20277;-74
2022/01/22 12:04:48;;;;;;;2.20;1.40;;;9.50;99.90;;;;;;5109416;28;20236;-73
2022/01/22 12:07:17;;;;;;;2.70;1.30;;;9.40;99.90;;;;;;5106440;28;20187;-74
2022/01/22 12:09:54;;;;;;;4.82;1.88;;;9.40;99.90;;;;;;5102708;28;20187;-75
2022/01/22 12:15:12;;;;;;;2.63;1.30;;;9.40;99.90;;;;;;5095438;28;20456;-73
2022/01/22 12:18:07;;;;;;;3.17;1.70;;;9.40;99.90;;;;;;5104073;28;20285;-73
2022/01/22 12:21:30;;;;;;;3.92;1.58;;;9.60;99.90;;;;;;5091519;28;20212;-76
2022/01/22 12:23:53;;;;;;;4.28;2.17;;;9.60;99.90;;;;;;5107052;28;20200;-74
2022/01/22 12:26:49;;;;;;;6.28;2.20;;;9.60;99.90;;;;;;5107891;28;20211;-73
2022/01/22 12:29:44;;;;;;;4.68;1.80;;;9.50;99.90;;;;;;5108296;28;20182;-73
2022/01/22 12:32:43;;;;;;;3.15;1.73;;;9.50;99.90;;;;;;5101791;28;20240;-74
2022/01/22 12:35:15;;;;;;;1.90;1.10;;;9.50;99.90;;;;;;5107920;28;20182;-74
2022/01/22 12:37:59;;;;;;;2.28;1.90;;;9.50;99.90;;;;;;5106186;28;20243;-73
2022/01/22 12:40:32;;;;;;;1.52;1.30;;;9.40;99.90;;;;;;5107270;28;20196;-73
2022/01/22 12:43:06;;;;;;;1.95;1.15;;;9.40;99.90;;;;;;5108335;28;20492;-74
2022/01/22 12:45:36;;;;;;;2.38;1.60;;;9.40;99.90;;;;;;5108269;28;20209;-73
2022/01/22 12:48:04;;;;;;;1.50;1.00;;;9.50;99.90;;;;;;5108658;27;20300;-74
2022/01/22 12:50:36;;;;;;;2.85;2.00;;;9.70;99.90;;;;;;5107416;28;20202;-74
2022/01/22 12:53:16;;;;;;;2.95;2.25;;;9.70;99.90;;;;;;5108590;28;20182;-74
2022/01/22 12:58:38;;;;;;;3.20;2.65;;;9.60;99.90;;;;;;5107839;28;20186;-74
2022/01/22 13:01:18;;;;;;;4.43;3.03;;;9.50;99.90;;;;;;5107727;28;20304;-73
2022/01/22 13:03:47;;;;;;;3.88;2.85;;;9.50;99.90;;;;;;5103141;28;20243;-74
2022/01/22 13:06:16;;;;;;;5.68;3.20;;;9.60;99.90;;;;;;5108110;28;20186;-74
2022/01/22 13:08:43;;;;;;;3.75;2.53;;;9.40;99.90;;;;;;5107622;28;20228;-74
2022/01/22 13:11:17;;;;;;;4.00;2.97;;;9.50;99.90;;;;;;5106990;28;20226;-74
2022/01/22 13:13:49;;;;;;;4.55;2.10;;;9.50;99.90;;;;;;5106199;28;20236;-74
2022/01/22 13:16:17;;;;;;;2.40;1.70;;;9.40;99.90;;;;;;5111173;28;20190;-74
2022/01/22 13:18:50;;;;;;;5.32;2.17;;;9.40;99.90;;;;;;5108182;28;20182;-73
2022/01/22 13:21:20;;;;;;;3.08;2.30;;;9.50;99.90;;;;;;5107459;28;20228;-73
2022/01/22 13:23:59;;;;;;;3.17;1.88;;;9.40;99.90;;;;;;5107860;28;20405;-73
2022/01/22 13:26:43;;;;;;;4.40;3.05;;;9.40;99.90;;;;;;5107784;28;20181;-73
2022/01/22 13:29:22;;;;;;;5.30;2.92;;;9.30;99.90;;;;;;5107119;28;20248;-75
2022/01/22 13:32:08;;;;;;;2.10;1.60;;;9.30;99.90;;;;;;5107454;28;20230;-74
2022/01/22 13:34:57;;;;;;;2.92;1.83;;;9.20;99.90;;;;;;5107783;28;20210;-75
2022/01/22 13:37:58;;;;;;;4.53;2.45;;;9.20;99.90;;;;;;5105173;27;20213;-74
2022/01/22 13:40:35;;;;;;;2.00;1.80;;;9.20;99.90;;;;;;5104131;28;20196;-74
2022/01/22 13:48:38;;;;;;;2.17;1.00;;;9.30;99.90;;;;;;5106971;28;20244;-74
2022/01/22 13:51:06;;;;;;;5.13;1.48;;;9.20;99.90;;;;;;5106379;28;20210;-74
2022/01/22 13:53:37;;;;;;;2.38;1.98;;;9.20;99.90;;;;;;5105521;28;20244;-74
2022/01/22 13:56:08;;;;;;;4.45;1.98;;;9.30;99.90;;;;;;5107019;28;20209;-74
2022/01/22 13:58:36;;;;;;;5.05;1.60;;;9.20;99.90;;;;;;5106553;28;20193;-74
2022/01/22 14:01:16;;;;;;;1.65;1.15;;;9.10;99.90;;;;;;5106337;28;20429;-74
2022/01/22 14:03:44;;;;;;;3.70;1.20;;;9.00;99.90;;;;;;5107424;28;20174;-74
2022/01/22 14:06:12;;;;;;;3.72;2.70;;;9.10;99.90;;;;;;5107635;28;20427;-75
2022/01/22 14:08:40;;;;;;;4.85;2.30;;;8.90;99.90;;;;;;5107052;28;20281;-74
2022/01/22 14:11:09;;;;;;;5.15;2.08;;;8.90;99.90;;;;;;5106118;28;20297;-74
2022/01/22 14:13:37;;;;;;;2.15;1.15;;;8.90;99.90;;;;;;5107162;28;20206;-74
2022/01/22 14:16:18;;;;;;;3.50;1.30;;;9.00;99.90;;;;;;5107251;28;20220;-73
2022/01/22 14:18:46;;;;;;;2.10;0.85;;;9.00;99.90;;;;;;5107450;28;20299;-73
2022/01/22 14:21:18;;;;;;;2.35;1.23;;;8.90;99.90;;;;;;5106576;28;20251;-74
2022/01/22 14:23:50;;;;;;;4.47;1.33;;;8.90;99.90;;;;;;5106839;28;20434;-74
2022/01/22 14:26:21;;;;;;;2.83;1.30;;;8.90;99.90;;;;;;5106949;28;20243;-74